createdAt,value
2018-06-03T00:00:25.890Z,82.21
2018-06-03T00:01:25.882Z,82.12
2018-06-03T00:02:25.869Z,81.74
2018-06-03T00:03:25.872Z,81.93
2018-06-03T00:04:25.865Z,81.84
2018-06-03T00:05:25.831Z,81.64
2018-06-03T00:06:25.817Z,81.45
2018-06-03T00:07:25.804Z,82.21
2018-06-03T00:08:25.796Z,82.03
2018-06-03T00:09:25.798Z,81.35
2018-06-03T00:10:25.763Z,81.84
2018-06-03T00:11:25.749Z,81.26
2018-06-03T00:12:25.740Z,81.64
2018-06-03T00:13:25.746Z,81.35
2018-06-03T00:14:25.731Z,81.54
2018-06-03T00:15:25.700Z,81.54
2018-06-03T00:16:25.696Z,81.45
2018-06-03T00:17:25.691Z,81.84
2018-06-03T00:18:25.665Z,81.54
2018-06-03T00:19:25.672Z,82.03
2018-06-03T00:20:25.656Z,82.03
2018-06-03T00:21:25.627Z,81.45
2018-06-03T00:22:25.616Z,81.54
2018-06-03T00:23:25.601Z,81.74
2018-06-03T00:24:25.591Z,82.03
2018-06-03T00:25:25.598Z,81.54
2018-06-03T00:26:25.567Z,81.84
2018-06-03T00:27:25.553Z,81.64
2018-06-03T00:28:25.539Z,81.64
2018-06-03T00:29:25.531Z,81.45
2018-06-03T00:30:25.538Z,80.97
2018-06-03T00:31:25.518Z,81.26
2018-06-03T00:32:25.492Z,80.87
2018-06-03T00:33:25.484Z,80.20
2018-06-03T00:34:25.495Z,80.49
2018-06-03T00:35:25.449Z,80.30
2018-06-03T00:36:25.452Z,80.30
2018-06-03T00:37:25.454Z,80.40
2018-06-03T00:38:25.414Z,80.58
2018-06-03T00:39:25.405Z,80.30
2018-06-03T00:40:25.388Z,79.63
2018-06-03T00:41:25.393Z,79.91
2018-06-03T00:42:25.382Z,79.88
2018-06-03T00:43:25.351Z,80.01
2018-06-03T00:44:25.357Z,79.72
2018-06-03T00:45:25.327Z,79.63
2018-06-03T00:46:25.315Z,79.34
2018-06-03T00:47:25.314Z,78.82
2018-06-03T00:48:25.307Z,78.77
2018-06-03T00:49:25.275Z,78.44
2018-06-03T00:50:25.267Z,78.09
2018-06-03T00:51:25.253Z,77.61
2018-06-03T00:52:25.238Z,77.90
2018-06-03T00:53:25.245Z,77.80
2018-06-03T00:54:25.224Z,77.80
2018-06-03T00:55:25.197Z,78.00
2018-06-03T00:56:25.187Z,77.76
2018-06-03T00:57:25.183Z,77.29
2018-06-03T00:58:25.162Z,77.42
2018-06-03T00:59:25.151Z,76.07
2018-06-03T01:00:25.143Z,76.65
2018-06-03T01:01:25.123Z,76.07
2018-06-03T01:02:25.128Z,76.56
2018-06-03T01:03:25.099Z,76.75
2018-06-03T01:04:25.103Z,76.84
2018-06-03T01:05:25.077Z,77.13
2018-06-03T01:06:25.062Z,76.56
2018-06-03T01:07:25.051Z,77.42
2018-06-03T01:08:25.042Z,77.42
2018-06-03T01:09:25.037Z,77.04
2018-06-03T01:10:25.011Z,77.13
2018-06-03T01:11:25.000Z,76.84
2018-06-03T01:12:24.984Z,76.94
2018-06-03T01:13:24.977Z,76.84
2018-06-03T01:14:24.979Z,76.46
2018-06-03T01:15:24.949Z,76.17
2018-06-03T01:16:24.939Z,76.56
2018-06-03T01:17:24.927Z,76.84
2018-06-03T01:18:24.920Z,77.13
2018-06-03T01:19:24.896Z,76.75
2018-06-03T01:20:24.900Z,77.04
2018-06-03T01:21:24.875Z,77.04
2018-06-03T01:22:24.865Z,76.56
2018-06-03T01:23:24.844Z,76.37
2018-06-03T01:24:24.856Z,76.17
2018-06-03T01:25:24.828Z,76.17
2018-06-03T01:26:24.830Z,75.98
2018-06-03T01:27:24.800Z,75.98
2018-06-03T01:28:24.803Z,75.89
2018-06-03T01:29:24.789Z,76.37
2018-06-03T01:30:24.758Z,76.46
2018-06-03T01:31:24.744Z,77.13
2018-06-03T01:32:24.735Z,77.33
2018-06-03T01:33:24.742Z,76.56
2018-06-03T01:34:24.727Z,76.65
2018-06-03T01:35:24.698Z,76.75
2018-06-03T01:36:24.684Z,77.61
2018-06-03T01:37:24.670Z,77.42
2018-06-03T01:38:24.662Z,78.19
2018-06-03T01:39:24.672Z,78.28
2018-06-03T01:40:24.635Z,78.38
2018-06-03T01:41:24.621Z,79.24
2018-06-03T01:42:24.607Z,78.86
2018-06-03T01:43:24.610Z,79.72
2018-06-03T01:44:24.575Z,79.53
2018-06-03T01:45:24.567Z,78.86
2018-06-03T01:46:24.559Z,78.96
2018-06-03T01:47:24.567Z,79.53
2018-06-03T01:48:24.530Z,79.44
2018-06-03T01:49:24.530Z,79.91
2018-06-03T01:50:45.519Z,79.82
2018-06-03T01:51:24.495Z,80.01
2018-06-03T01:52:24.478Z,79.72
2018-06-03T01:53:24.469Z,79.72
2018-06-03T01:54:24.453Z,80.01
2018-06-03T01:55:24.499Z,79.53
2018-06-03T01:56:24.422Z,80.58
2018-06-03T01:57:24.412Z,80.68
2018-06-03T01:58:24.393Z,80.30
2018-06-03T01:59:24.393Z,80.40
2018-06-03T02:00:24.387Z,80.78
2018-06-03T02:01:24.361Z,80.97
2018-06-03T02:02:24.354Z,80.78
2018-06-03T02:03:24.333Z,80.58
2018-06-03T02:04:24.336Z,80.58
2018-06-03T02:05:24.322Z,80.40
2018-06-03T02:06:24.296Z,80.01
2018-06-03T02:07:24.283Z,79.72
2018-06-03T02:08:24.272Z,79.91
2018-06-03T02:09:24.274Z,79.24
2018-06-03T02:10:24.245Z,79.34
2018-06-03T02:11:24.227Z,79.63
2018-06-03T02:12:24.209Z,79.53
2018-06-03T02:13:24.203Z,79.14
2018-06-03T02:14:24.193Z,78.67
2018-06-03T02:15:24.205Z,78.57
2018-06-03T02:16:24.168Z,78.86
2018-06-03T02:17:24.155Z,78.96
2018-06-03T02:18:24.145Z,78.09
2018-06-03T02:19:24.123Z,79.14
2018-06-03T02:20:24.129Z,78.77
2018-06-03T02:21:24.101Z,78.67
2018-06-03T02:22:24.086Z,78.09
2018-06-03T02:23:24.073Z,77.80
2018-06-03T02:24:24.066Z,77.09
2018-06-03T02:25:24.066Z,76.42
2018-06-03T02:26:24.033Z,76.42
2018-06-03T02:27:24.021Z,76.42
2018-06-03T02:28:24.009Z,76.04
2018-06-03T02:29:23.993Z,75.95
2018-06-03T02:30:23.993Z,75.75
2018-06-03T02:31:23.966Z,75.56
2018-06-03T02:32:23.954Z,75.95
2018-06-03T02:33:23.943Z,75.85
2018-06-03T02:34:23.925Z,76.04
2018-06-03T02:35:23.920Z,75.46
2018-06-03T02:36:23.921Z,75.18
2018-06-03T02:37:23.884Z,75.65
2018-06-03T02:38:23.886Z,75.27
2018-06-03T02:39:23.861Z,75.46
2018-06-03T02:40:23.851Z,75.56
2018-06-03T02:41:23.851Z,75.08
2018-06-03T02:42:23.821Z,74.41
2018-06-03T02:43:23.807Z,74.60
2018-06-03T02:44:23.793Z,74.41
2018-06-03T02:45:23.782Z,73.74
2018-06-03T02:46:23.769Z,73.74
2018-06-03T02:47:23.773Z,74.22
2018-06-03T02:48:23.759Z,74.02
2018-06-03T02:49:23.726Z,74.22
2018-06-03T02:50:23.714Z,73.83
2018-06-03T02:51:23.704Z,73.93
2018-06-03T02:52:23.711Z,73.83
2018-06-03T02:53:23.695Z,73.65
2018-06-03T02:54:23.672Z,73.07
2018-06-03T02:55:23.659Z,73.65
2018-06-03T02:56:23.641Z,73.83
2018-06-03T02:57:23.646Z,73.83
2018-06-03T02:58:23.607Z,73.93
2018-06-03T02:59:23.618Z,74.12
2018-06-03T03:00:23.584Z,73.93
2018-06-03T03:01:23.583Z,73.93
2018-06-03T03:02:23.558Z,74.69
2018-06-03T03:03:23.549Z,74.79
2018-06-03T03:04:23.555Z,74.60
2018-06-03T03:05:23.523Z,74.89
2018-06-03T03:06:23.515Z,74.89
2018-06-03T03:07:23.497Z,74.79
2018-06-03T03:08:23.485Z,74.69
2018-06-03T03:09:23.490Z,74.69
2018-06-03T03:10:23.457Z,74.22
2018-06-03T03:11:23.439Z,74.51
2018-06-03T03:12:23.433Z,74.79
2018-06-03T03:13:23.419Z,74.69
2018-06-03T03:14:23.425Z,74.98
2018-06-03T03:15:23.400Z,74.60
2018-06-03T03:16:23.381Z,74.51
2018-06-03T03:17:23.368Z,73.74
2018-06-03T03:18:23.356Z,73.93
2018-06-03T03:19:23.343Z,73.16
2018-06-03T03:20:23.362Z,73.35
2018-06-03T03:21:23.324Z,73.45
2018-06-03T03:22:23.308Z,73.35
2018-06-03T03:23:23.290Z,72.78
2018-06-03T03:24:23.279Z,71.82
2018-06-03T03:25:23.264Z,72.30
2018-06-03T03:26:23.271Z,72.30
2018-06-03T03:27:23.238Z,72.39
2018-06-03T03:28:23.228Z,72.01
2018-06-03T03:29:23.215Z,72.20
2018-06-03T03:30:23.203Z,72.27
2018-06-03T03:31:23.205Z,71.59
2018-06-03T03:32:23.176Z,71.63
2018-06-03T03:33:23.159Z,71.69
2018-06-03T03:34:23.148Z,70.96
2018-06-03T03:35:23.137Z,70.96
2018-06-03T03:36:23.124Z,70.96
2018-06-03T03:37:23.127Z,70.86
2018-06-03T03:38:23.092Z,70.09
2018-06-03T03:39:23.087Z,70.19
2018-06-03T03:40:23.068Z,70.76
2018-06-03T03:41:23.055Z,71.15
2018-06-03T03:42:23.076Z,71.05
2018-06-03T03:43:23.030Z,71.25
2018-06-03T03:44:23.017Z,71.15
2018-06-03T03:45:23.006Z,70.76
2018-06-03T03:46:22.996Z,70.67
2018-06-03T03:47:22.998Z,70.57
2018-06-03T03:48:22.982Z,70.57
2018-06-03T03:49:22.957Z,70.86
2018-06-03T03:50:22.942Z,70.57
2018-06-03T03:51:22.947Z,71.44
2018-06-03T03:52:22.930Z,71.05
2018-06-03T03:53:22.908Z,71.63
2018-06-03T03:54:22.892Z,71.92
2018-06-03T03:55:22.881Z,71.82
2018-06-03T03:56:22.862Z,72.01
2018-06-03T03:57:22.870Z,72.68
2018-06-03T03:58:22.866Z,73.65
2018-06-03T03:59:22.830Z,74.69
2018-06-03T04:00:22.815Z,74.41
2018-06-03T04:01:22.798Z,74.98
2018-06-03T04:02:22.815Z,75.56
2018-06-03T04:03:22.793Z,76.52
2018-06-03T04:04:22.790Z,76.90
2018-06-03T04:05:22.754Z,76.90
2018-06-03T04:06:22.741Z,78.05
2018-06-03T04:07:22.725Z,78.00
2018-06-03T04:08:22.713Z,77.76
2018-06-03T04:09:22.715Z,77.58
2018-06-03T04:10:22.691Z,77.29
2018-06-03T04:11:22.674Z,77.00
2018-06-03T04:12:22.659Z,77.09
2018-06-03T04:13:22.660Z,76.23
2018-06-03T04:14:22.647Z,76.23
2018-06-03T04:15:22.623Z,75.95
2018-06-03T04:16:22.606Z,76.04
2018-06-03T04:17:22.592Z,75.46
2018-06-03T04:18:22.577Z,75.65
2018-06-03T04:19:22.577Z,75.27
2018-06-03T04:20:22.555Z,75.08
2018-06-03T04:21:22.542Z,74.41
2018-06-03T04:22:22.531Z,75.46
2018-06-03T04:23:22.513Z,75.46
2018-06-03T04:24:22.515Z,75.75
2018-06-03T04:25:22.483Z,75.08
2018-06-03T04:26:22.487Z,74.76
2018-06-03T04:27:22.459Z,75.08
2018-06-03T04:28:22.450Z,74.37
2018-06-03T04:29:22.433Z,74.08
2018-06-03T04:30:22.454Z,73.80
2018-06-03T04:31:22.420Z,73.61
2018-06-03T04:32:22.396Z,73.80
2018-06-03T04:33:22.375Z,73.90
2018-06-03T04:34:22.369Z,73.99
2018-06-03T04:35:22.348Z,73.90
2018-06-03T04:36:22.355Z,73.74
2018-06-03T04:37:22.355Z,74.98
2018-06-03T04:38:22.306Z,75.08
2018-06-03T04:39:22.298Z,74.60
2018-06-03T04:40:22.304Z,74.89
2018-06-03T04:41:22.339Z,74.41
2018-06-03T04:42:22.256Z,73.83
2018-06-03T04:43:22.244Z,75.08
2018-06-03T04:44:22.232Z,75.08
2018-06-03T04:45:22.217Z,75.37
2018-06-03T04:46:22.204Z,75.27
2018-06-03T04:47:22.206Z,75.85
2018-06-03T04:48:22.180Z,75.85
2018-06-03T04:49:22.166Z,76.62
2018-06-03T04:50:22.147Z,76.42
2018-06-03T04:51:22.139Z,76.90
2018-06-03T04:52:22.150Z,76.90
2018-06-03T04:53:22.110Z,76.90
2018-06-03T04:54:22.104Z,76.81
2018-06-03T04:55:22.081Z,77.09
2018-06-03T04:56:22.070Z,77.58
2018-06-03T04:57:22.055Z,78.34
2018-06-03T04:58:22.053Z,79.11
2018-06-03T04:59:22.030Z,79.21
2018-06-03T05:00:22.017Z,79.30
2018-06-03T05:01:22.001Z,79.01
2018-06-03T05:02:21.989Z,77.38
2018-06-03T05:03:21.993Z,76.71
2018-06-03T05:04:21.964Z,77.00
2018-06-03T05:05:21.950Z,76.81
2018-06-03T05:06:21.937Z,76.90
2018-06-03T05:07:21.935Z,76.27
2018-06-03T05:08:21.909Z,76.84
2018-06-03T05:09:21.895Z,78.09
2018-06-03T05:10:21.892Z,77.61
2018-06-03T05:11:21.866Z,76.94
2018-06-03T05:12:21.871Z,76.65
2018-06-03T05:13:21.858Z,78.00
2018-06-03T05:14:21.829Z,79.24
2018-06-03T05:15:21.816Z,80.78
2018-06-03T05:16:21.807Z,80.68
2018-06-03T05:17:21.787Z,79.72
2018-06-03T05:18:21.798Z,80.97
2018-06-03T05:19:21.760Z,81.26
2018-06-03T05:20:21.765Z,81.74
2018-06-03T05:21:21.744Z,81.68
2018-06-03T05:22:21.723Z,82.16
2018-06-03T05:23:21.766Z,81.97
2018-06-03T05:24:21.697Z,81.78
2018-06-03T05:25:21.688Z,81.87
2018-06-03T05:26:21.675Z,82.54
2018-06-03T05:27:21.665Z,82.74
2018-06-03T05:28:21.668Z,82.74
2018-06-03T05:29:21.633Z,82.74
2018-06-03T05:30:21.625Z,82.54
2018-06-03T05:31:21.608Z,82.20
2018-06-03T05:32:21.602Z,83.07
2018-06-03T05:33:21.586Z,84.51
2018-06-03T05:34:21.586Z,84.41
2018-06-03T05:35:21.557Z,82.87
2018-06-03T05:36:21.560Z,84.31
2018-06-03T05:37:21.533Z,83.54
2018-06-03T05:38:21.519Z,84.89
2018-06-03T05:39:21.505Z,85.37
2018-06-03T05:40:21.512Z,86.85
2018-06-03T05:41:21.490Z,85.71
2018-06-03T05:42:21.467Z,85.51
2018-06-03T05:43:21.458Z,87.24
2018-06-03T05:44:21.446Z,87.24
2018-06-03T05:45:21.435Z,87.43
2018-06-03T05:46:21.433Z,88.15
2018-06-03T05:47:21.412Z,86.61
2018-06-03T05:48:21.390Z,87.96
2018-06-03T05:49:21.390Z,91.61
2018-06-03T05:50:21.371Z,90.99
2018-06-03T05:51:21.377Z,89.88
2018-06-03T05:52:21.348Z,89.98
2018-06-03T05:53:21.336Z,89.78
2018-06-03T05:54:21.323Z,90.94
2018-06-03T05:55:21.316Z,91.22
2018-06-03T05:56:21.329Z,91.22
2018-06-03T05:57:21.287Z,90.79
2018-06-03T05:58:21.274Z,91.36
2018-06-03T05:59:21.263Z,91.85
2018-06-03T06:00:21.252Z,91.75
2018-06-03T06:01:21.239Z,91.17
2018-06-03T06:02:21.243Z,91.46
2018-06-03T06:03:21.217Z,92.43
2018-06-03T06:04:21.221Z,90.50
2018-06-03T06:05:21.191Z,92.23
2018-06-03T06:06:21.179Z,93.77
2018-06-03T06:07:21.186Z,94.30
2018-06-03T06:08:21.151Z,93.24
2018-06-03T06:09:21.163Z,94.30
2018-06-03T06:10:21.137Z,95.26
2018-06-03T06:11:21.116Z,95.45
2018-06-03T06:12:21.109Z,95.26
2018-06-03T06:13:21.101Z,95.17
2018-06-03T06:14:21.102Z,95.17
2018-06-03T06:15:21.074Z,95.07
2018-06-03T06:16:21.067Z,93.87
2018-06-03T06:17:21.056Z,93.53
2018-06-03T06:18:21.040Z,94.20
2018-06-03T06:19:21.045Z,94.30
2018-06-03T06:20:21.020Z,94.40
2018-06-03T06:21:21.005Z,95.36
2018-06-03T06:22:20.993Z,95.74
2018-06-03T06:23:21.006Z,95.84
2018-06-03T06:24:20.977Z,95.45
2018-06-03T06:25:20.979Z,94.59
2018-06-03T06:26:20.947Z,94.78
2018-06-03T06:27:20.939Z,93.24
2018-06-03T06:28:20.940Z,95.40
2018-06-03T06:29:20.935Z,95.50
2018-06-03T06:30:20.903Z,94.25
2018-06-03T06:31:20.887Z,95.12
2018-06-03T06:32:20.885Z,94.15
2018-06-03T06:33:20.867Z,95.50
2018-06-03T06:34:20.890Z,95.60
2018-06-03T06:35:20.867Z,95.74
2018-06-03T06:36:20.840Z,95.84
2018-06-03T06:37:20.843Z,94.68
2018-06-03T06:38:20.815Z,93.53
2018-06-03T06:39:20.821Z,94.40
2018-06-03T06:40:20.789Z,94.10
2018-06-03T06:41:20.813Z,94.59
2018-06-03T06:42:20.771Z,94.40
2018-06-03T06:43:20.757Z,94.30
2018-06-03T06:44:20.765Z,93.15
2018-06-03T06:45:20.740Z,94.59
2018-06-03T06:46:20.755Z,95.94
2018-06-03T06:47:20.714Z,93.53
2018-06-03T06:48:20.703Z,93.24
2018-06-03T06:49:20.712Z,94.30
2018-06-03T06:50:20.684Z,94.59
2018-06-03T06:51:20.670Z,94.49
2018-06-03T06:52:20.667Z,95.45
2018-06-03T06:53:20.652Z,95.26
2018-06-03T06:54:20.646Z,94.01
2018-06-03T06:55:20.646Z,93.62
2018-06-03T06:56:20.614Z,94.30
2018-06-03T06:57:20.637Z,94.10
2018-06-03T06:58:20.596Z,92.57
2018-06-03T06:59:20.579Z,95.07
2018-06-03T07:00:20.591Z,94.64
2018-06-03T07:01:20.563Z,96.80
2018-06-03T07:02:20.554Z,96.70
2018-06-03T07:03:20.541Z,95.45
2018-06-03T07:04:20.526Z,95.50
2018-06-03T07:05:20.537Z,95.21
2018-06-03T07:06:20.507Z,97.42
2018-06-03T07:07:20.497Z,96.75
2018-06-03T07:08:20.499Z,96.66
2018-06-03T07:09:20.482Z,96.85
2018-06-03T07:10:20.480Z,95.79
2018-06-03T07:11:20.457Z,94.92
2018-06-03T07:12:20.446Z,96.27
2018-06-03T07:13:20.449Z,97.14
2018-06-03T07:14:20.426Z,95.79
2018-06-03T07:15:20.406Z,96.75
2018-06-03T07:16:20.402Z,96.08
2018-06-03T07:17:20.388Z,96.17
2018-06-03T07:18:20.394Z,96.37
2018-06-03T07:19:20.366Z,96.75
2018-06-03T07:20:20.359Z,97.33
2018-06-03T07:21:20.352Z,96.85
2018-06-03T07:22:20.342Z,95.74
2018-06-03T07:23:20.394Z,97.38
2018-06-03T07:24:20.319Z,96.51
2018-06-03T07:25:20.318Z,95.79
2018-06-03T07:26:20.295Z,96.75
2018-06-03T07:27:20.308Z,95.21
2018-06-03T07:28:20.272Z,95.74
2018-06-03T07:29:20.264Z,96.56
2018-06-03T07:30:20.254Z,96.46
2018-06-03T07:31:20.243Z,96.27
2018-06-03T07:32:20.225Z,96.75
2018-06-03T07:33:20.231Z,96.17
2018-06-03T07:34:20.207Z,97.04
2018-06-03T07:35:20.197Z,97.52
2018-06-03T07:36:20.190Z,97.42
2018-06-03T07:37:20.172Z,97.09
2018-06-03T07:38:20.192Z,97.96
2018-06-03T07:39:20.171Z,98.34
2018-06-03T07:40:20.141Z,98.72
2018-06-03T07:41:20.128Z,98.05
2018-06-03T07:42:20.132Z,96.89
2018-06-03T07:43:20.114Z,97.47
2018-06-03T07:44:20.125Z,97.47
2018-06-03T07:45:20.089Z,98.44
2018-06-03T07:46:20.077Z,98.58
2018-06-03T07:47:20.066Z,98.20
2018-06-03T07:48:20.061Z,98.77
2018-06-03T07:49:20.063Z,98.87
2018-06-03T07:50:20.075Z,98.58
2018-06-03T07:51:20.028Z,98.97
2018-06-03T07:52:20.021Z,98.58
2018-06-03T07:53:20.011Z,98.87
2018-06-03T07:54:19.999Z,99.02
2018-06-03T07:55:20.002Z,99.69
2018-06-03T07:56:19.998Z,98.92
2018-06-03T07:57:19.992Z,98.49
2018-06-03T07:58:19.951Z,98.39
2018-06-03T07:59:19.962Z,97.47
2018-06-03T08:00:19.939Z,98.68
2018-06-03T08:01:19.925Z,98.63
2018-06-03T08:02:19.915Z,98.73
2018-06-03T08:03:19.904Z,98.73
2018-06-03T08:04:19.893Z,98.44
2018-06-03T08:05:19.902Z,99.02
2018-06-03T08:06:19.874Z,98.92
2018-06-03T08:07:19.863Z,98.54
2018-06-03T08:08:19.855Z,98.34
2018-06-03T08:09:19.845Z,98.44
2018-06-03T08:10:19.830Z,99.02
2018-06-03T08:11:19.838Z,98.25
2018-06-03T08:12:19.813Z,98.15
2018-06-03T08:13:19.803Z,98.82
2018-06-03T08:14:19.790Z,99.16
2018-06-03T08:15:19.803Z,99.35
2018-06-03T08:16:19.773Z,99.84
2018-06-03T08:17:19.761Z,99.55
2018-06-03T08:18:19.751Z,99.45
2018-06-03T08:19:19.741Z,99.02
2018-06-03T08:20:19.733Z,98.73
2018-06-03T08:21:19.738Z,99.69
2018-06-03T08:22:19.728Z,99.60
2018-06-03T08:23:19.705Z,99.98
2018-06-03T08:24:19.695Z,99.99
2018-06-03T08:25:19.687Z,98.73
2018-06-03T08:26:19.690Z,99.21
2018-06-03T08:27:19.663Z,99.99
2018-06-03T08:28:19.662Z,99.94
2018-06-03T08:29:19.652Z,99.79
2018-06-03T08:30:19.636Z,99.21
2018-06-03T08:31:19.644Z,99.99
2018-06-03T08:32:19.620Z,98.63
2018-06-03T08:33:19.607Z,99.69
2018-06-03T08:34:19.590Z,98.30
2018-06-03T08:35:19.592Z,99.84
2018-06-03T08:36:19.593Z,98.58
2018-06-03T08:37:19.571Z,98.88
2018-06-03T08:38:19.557Z,98.30
2018-06-03T08:39:19.643Z,98.30
2018-06-03T08:40:19.545Z,98.30
2018-06-03T08:41:19.553Z,98.05
2018-06-03T08:42:19.526Z,98.54
2018-06-03T08:43:19.515Z,97.67
2018-06-03T08:44:19.517Z,97.76
2018-06-03T08:45:19.528Z,96.55
2018-06-03T08:46:19.490Z,97.91
2018-06-03T08:47:19.480Z,97.38
2018-06-03T08:48:19.476Z,98.05
2018-06-03T08:49:19.465Z,98.25
2018-06-03T08:50:19.458Z,98.30
2018-06-03T08:51:19.463Z,98.68
2018-06-03T08:52:19.439Z,98.35
2018-06-03T08:53:19.437Z,99.02
2018-06-03T08:54:19.436Z,98.15
2018-06-03T08:55:19.415Z,98.93
2018-06-03T08:56:19.408Z,98.30
2018-06-03T08:57:19.403Z,99.16
2018-06-03T08:58:19.395Z,99.07
2018-06-03T08:59:19.397Z,99.31
2018-06-03T09:00:19.372Z,98.83
2018-06-03T09:01:19.360Z,99.21
2018-06-03T09:02:19.350Z,99.40
2018-06-03T09:03:19.361Z,99.02
2018-06-03T09:04:19.331Z,99.11
2018-06-03T09:05:19.332Z,98.63
2018-06-03T09:06:19.312Z,98.34
2018-06-03T09:07:19.305Z,99.69
2018-06-03T09:08:19.300Z,99.31
2018-06-03T09:09:19.305Z,98.73
2018-06-03T09:10:19.274Z,98.92
2018-06-03T09:11:19.289Z,99.50
2018-06-03T09:12:19.257Z,99.93
2018-06-03T09:13:19.256Z,98.25
2018-06-03T09:14:19.258Z,99.40
2018-06-03T09:15:19.226Z,99.50
2018-06-03T09:16:19.226Z,99.11
2018-06-03T09:17:19.217Z,99.60
2018-06-03T09:18:19.206Z,99.11
2018-06-03T09:19:19.196Z,99.40
2018-06-03T09:20:19.203Z,99.69
2018-06-03T09:21:19.193Z,99.07
2018-06-03T09:22:19.178Z,98.92
2018-06-03T09:23:19.161Z,98.54
2018-06-03T09:24:19.161Z,98.54
2018-06-03T09:25:19.135Z,99.02
2018-06-03T09:26:19.129Z,99.40
2018-06-03T09:27:19.137Z,98.44
2018-06-03T09:28:19.112Z,99.79
2018-06-03T09:29:19.103Z,99.21
2018-06-03T09:30:19.102Z,99.40
2018-06-03T09:31:19.082Z,98.25
2018-06-03T09:32:19.071Z,99.69
2018-06-03T09:33:19.081Z,99.31
2018-06-03T09:34:19.055Z,98.63
2018-06-03T09:35:19.069Z,99.79
2018-06-03T09:36:19.036Z,98.73
2018-06-03T09:37:19.029Z,98.54
2018-06-03T09:38:19.018Z,98.92
2018-06-03T09:39:19.008Z,99.45
2018-06-03T09:40:19.001Z,99.55
2018-06-03T09:41:19.008Z,98.30
2018-06-03T09:42:18.984Z,99.84
2018-06-03T09:43:18.976Z,98.97
2018-06-03T09:44:19.028Z,98.54
2018-06-03T09:45:18.958Z,98.93
2018-06-03T09:46:18.952Z,98.54
2018-06-03T09:47:18.955Z,98.25
2018-06-03T09:48:18.927Z,97.04
2018-06-03T09:49:18.944Z,96.94
2018-06-03T09:50:18.914Z,94.52
2018-06-03T09:51:18.903Z,95.58
2018-06-03T09:52:18.893Z,95.20
2018-06-03T09:53:18.915Z,96.36
2018-06-03T09:54:18.877Z,96.07
2018-06-03T09:55:18.882Z,93.98
2018-06-03T09:56:18.863Z,93.26
2018-06-03T09:57:18.856Z,93.01
2018-06-03T09:58:18.846Z,95.43
2018-06-03T09:59:18.835Z,92.86
2018-06-03T10:00:18.857Z,90.53
2018-06-03T10:01:18.841Z,91.85
2018-06-03T10:02:18.817Z,87.90
2018-06-03T10:03:18.809Z,84.05
2018-06-03T10:04:18.796Z,78.96
2018-06-03T10:05:18.794Z,69.98
2018-06-03T10:06:18.806Z,66.99
2018-06-03T10:07:18.786Z,64.97
2018-06-03T10:08:18.784Z,66.83
2018-06-03T10:09:18.771Z,64.90
2018-06-03T10:10:18.801Z,62.89
2018-06-03T10:11:18.783Z,60.35
2018-06-03T10:12:18.760Z,59.57
2018-06-03T10:13:18.758Z,59.28
2018-06-03T10:14:18.751Z,60.91
2018-06-03T10:15:18.757Z,65.43
2018-06-03T10:16:18.746Z,64.29
2018-06-03T10:17:18.756Z,67.05
2018-06-03T10:18:18.740Z,71.46
2018-06-03T10:19:18.737Z,72.11
2018-06-03T10:20:18.738Z,73.27
2018-06-03T10:21:18.747Z,77.28
2018-06-03T10:22:18.743Z,78.99
2018-06-03T10:23:18.747Z,82.48
2018-06-03T10:24:18.720Z,83.75
2018-06-03T10:25:18.717Z,85.50
2018-06-03T10:26:18.711Z,88.95
2018-06-03T10:27:18.708Z,90.74
2018-06-03T10:28:18.706Z,86.77
2018-06-03T10:29:18.715Z,89.09
2018-06-03T10:30:18.696Z,84.82
2018-06-03T10:31:18.686Z,81.41
2018-06-03T10:32:18.695Z,74.05
2018-06-03T10:33:18.683Z,71.62
2018-06-03T10:34:18.692Z,73.28
2018-06-03T10:35:18.671Z,71.53
2018-06-03T10:36:18.666Z,66.05
2018-06-03T10:37:18.679Z,66.21
2018-06-03T10:38:18.657Z,62.92
2018-06-03T10:39:18.653Z,62.02
2018-06-03T10:40:18.650Z,66.05
2018-06-03T10:41:18.649Z,65.98
2018-06-03T10:42:18.662Z,70.26
2018-06-03T10:43:18.658Z,75.53
2018-06-03T10:44:18.641Z,84.52
2018-06-03T10:45:18.651Z,81.66
2018-06-03T10:46:18.638Z,80.94
2018-06-03T10:47:18.632Z,82.59
2018-06-03T10:48:18.641Z,84.92
2018-06-03T10:49:18.624Z,85.51
2018-06-03T10:50:18.627Z,86.96
2018-06-03T10:51:18.612Z,90.84
2018-06-03T10:52:18.612Z,88.23
2018-06-03T10:53:18.609Z,87.59
2018-06-03T10:54:18.616Z,85.11
2018-06-03T10:55:18.628Z,81.90
2018-06-03T10:56:18.589Z,82.17
2018-06-03T10:57:18.580Z,74.76
2018-06-03T10:58:18.579Z,70.36
2018-06-03T10:59:18.577Z,69.84
2018-06-03T11:00:18.586Z,63.06
2018-06-03T11:01:18.572Z,61.82
2018-06-03T11:02:18.563Z,61.40
2018-06-03T11:03:18.562Z,62.08
2018-06-03T11:04:18.553Z,61.17
2018-06-03T11:05:18.580Z,59.54
2018-06-03T11:06:18.557Z,59.44
2018-06-03T11:07:18.553Z,56.74
2018-06-03T11:08:18.548Z,56.93
2018-06-03T11:09:18.548Z,58.03
2018-06-03T11:10:18.547Z,56.57
2018-06-03T11:11:18.563Z,55.22
2018-06-03T11:12:18.541Z,54.42
2018-06-03T11:13:18.548Z,55.40
2018-06-03T11:14:18.543Z,58.13
2018-06-03T11:15:18.542Z,57.81
2018-06-03T11:16:18.545Z,57.75
2018-06-03T11:17:18.557Z,57.29
2018-06-03T11:18:18.558Z,55.66
2018-06-03T11:19:18.543Z,55.37
2018-06-03T11:20:18.545Z,54.42
2018-06-03T11:21:18.560Z,54.67
2018-06-03T11:22:18.563Z,51.56
2018-06-03T11:23:18.569Z,52.54
2018-06-03T11:24:18.555Z,50.20
2018-06-03T11:25:18.555Z,52.93
2018-06-03T11:26:18.546Z,54.61
2018-06-03T11:27:18.547Z,56.87
2018-06-03T11:28:18.547Z,55.83
2018-06-03T11:29:18.572Z,55.63
2018-06-03T11:30:18.545Z,54.88
2018-06-03T11:31:18.552Z,57.03
2018-06-03T11:32:18.552Z,57.65
2018-06-03T11:33:18.553Z,60.52
2018-06-03T11:34:18.566Z,62.70
2018-06-03T11:35:18.574Z,65.66
2018-06-03T11:36:18.547Z,68.02
2018-06-03T11:37:18.549Z,69.64
2018-06-03T11:38:18.553Z,70.22
2018-06-03T11:39:18.560Z,70.61
2018-06-03T11:40:18.545Z,73.78
2018-06-03T11:41:18.584Z,70.29
2018-06-03T11:42:18.560Z,72.00
2018-06-03T11:43:18.546Z,71.61
2018-06-03T11:44:18.547Z,70.35
2018-06-03T11:45:18.558Z,77.92
2018-06-03T11:46:18.560Z,74.33
2018-06-03T11:47:18.537Z,77.11
2018-06-03T11:48:18.534Z,79.14
2018-06-03T11:49:18.534Z,76.29
2018-06-03T11:50:18.541Z,77.75
2018-06-03T11:51:18.522Z,76.52
2018-06-03T11:52:18.521Z,78.27
2018-06-03T11:53:18.515Z,81.37
2018-06-03T11:54:18.506Z,80.69
2018-06-03T11:55:18.507Z,81.12
2018-06-03T11:56:18.524Z,81.31
2018-06-03T11:57:18.503Z,81.27
2018-06-03T11:58:18.495Z,77.62
2018-06-03T11:59:18.491Z,78.36
2018-06-03T12:00:18.489Z,77.11
2018-06-03T12:02:50.525Z,78.75
2018-06-03T12:03:50.505Z,80.36
2018-06-03T12:04:50.514Z,79.88
2018-06-03T12:05:50.505Z,80.32
2018-06-03T12:06:50.510Z,80.75
2018-06-03T12:07:50.486Z,82.63
2018-06-03T12:08:50.488Z,78.50
2018-06-03T12:09:50.473Z,77.90
2018-06-03T12:10:50.473Z,77.15
2018-06-03T12:11:50.502Z,71.66
2018-06-03T12:12:50.459Z,71.20
2018-06-03T12:13:50.454Z,63.16
2018-06-03T12:14:50.470Z,63.68
2018-06-03T12:15:50.451Z,65.92
2018-06-03T12:16:50.444Z,66.93
2018-06-03T12:17:50.442Z,63.02
2018-06-03T12:18:50.441Z,65.26
2018-06-03T12:19:50.477Z,60.03
2018-06-03T12:20:50.429Z,61.69
2018-06-03T12:21:50.426Z,58.31
2018-06-03T12:22:51.163Z,59.70
2018-06-03T12:23:50.432Z,57.26
2018-06-03T12:24:50.442Z,59.23
2018-06-03T12:25:50.446Z,57.74
2018-06-03T12:26:50.436Z,58.35
2018-06-03T12:27:50.420Z,60.72
2018-06-03T12:28:50.432Z,57.31
2018-06-03T12:29:50.413Z,59.70
2018-06-03T12:30:50.418Z,58.04
2018-06-03T12:31:50.429Z,56.58
2018-06-03T12:32:50.432Z,58.56
2018-06-03T12:33:50.412Z,57.20
2018-06-03T12:34:50.425Z,56.64
2018-06-03T12:35:50.412Z,55.86
2018-06-03T12:36:50.429Z,56.54
2018-06-03T12:37:50.413Z,58.30
2018-06-03T12:38:50.414Z,54.10
2018-06-03T12:39:50.432Z,59.28
2018-06-03T12:40:50.412Z,56.61
2018-06-03T12:41:50.428Z,58.86
2018-06-03T12:42:50.413Z,57.46
2018-06-03T12:43:50.426Z,58.92
2018-06-03T12:44:50.412Z,58.28
2018-06-03T12:45:50.435Z,60.30
2018-06-03T12:46:50.416Z,60.49
2018-06-03T12:47:50.426Z,62.80
2018-06-03T12:48:50.413Z,64.62
2018-06-03T12:49:50.406Z,61.80
2018-06-03T12:50:50.419Z,65.69
2018-06-03T12:51:50.409Z,64.75
2018-06-03T12:52:50.420Z,65.33
2018-06-03T12:53:50.411Z,68.32